Data for 11/28/2012

Time Sea-Level Adjusted Pressure Absolute Pressure Temperature Relative Humidity Dew Point   
(mb) (inHg) (mb) (inHg) (C) (F) (%) (C) (F)
00:05 1020 30.12 849 25.07 -0.9 30.4 57 -8.3 17
00:10 1020 30.12 849 25.07 -0.6 30.9 56 -8.3 17.1
00:15 1020 30.12 849 25.07 -0.5 31.1 56 -8.2 17.3
00:20 1020 30.12 849 25.07 -0.4 31.2 56 -8.2 17.3
00:25 1020 30.12 849 25.07 -0.4 31.3 56 -8.2 17.3
00:30 1020 30.12 849 25.07 -0.6 30.9 58 -7.8 17.9
00:35 1020 30.12 849 25.07 -1 30.2 59 -8 17.5
00:40 1020 30.12 849 25.07 -1 30.2 58 -8.2 17.3
00:45 1020 30.12 849 25.07 -0.7 30.8 56 -8.4 16.9
00:50 1020 30.12 849 25.07 -0.6 31 55 -8.5 16.6
00:55 1020 30.12 849 25.07 0 32 52 -8.8 16.2
01:00 1020 30.12 849 25.07 0.5 32.9 51 -8.6 16.6
01:05 1020 30.12 849 25.07 0.6 33 52 -8.2 17.2
01:10 1020 30.12 849 25.07 0.2 32.4 54 -8.1 17.4
01:15 1020 30.12 849 25.07 -0.1 31.8 56 -7.9 17.8
01:20 1020 30.12 849 25.07 -0.7 30.7 58 -8 17.6
01:25 1020 30.12 849 25.07 -0.9 30.4 58 -8.2 17.3
01:30 1020 30.12 849 25.07 -0.8 30.5 58 -8.1 17.4
01:35 1020 30.12 849 25.07 -0.9 30.3 57 -8.3 17
01:40 1020 30.12 849 25.07 -1 30.3 57 -8.5 16.7
01:45 1020 30.12 849 25.07 -0.5 31.1 54 -8.7 16.3
01:50 1020 30.12 849 25.07 -0.3 31.5 54 -8.5 16.6
01:55 1020 30.12 849 25.07 -0.3 31.5 55 -8.3 17
02:00 1020 30.12 849 25.07 -0.4 31.4 56 -8.2 17.3
02:05 1020 30.12 849 25.07 -0.8 30.5 58 -8 17.6
02:10 1020 30.12 849 25.07 -1 30.2 58 -8.2 17.2
02:15 1020 30.12 849 25.07 -0.8 30.6 58 -8.1 17.4
02:20 1020 30.12 849 25.07 -0.6 30.9 57 -8.2 17.3
02:25 1020 30.12 849 25.07 -0.2 31.7 53 -8.5 16.7
02:30 1020 30.12 849 25.07 0.2 32.3 54 -8.1 17.4
02:35 1020 30.12 849 25.07 -0.3 31.5 58 -7.7 18.2
02:40 1020 30.12 849 25.07 -0.7 30.8 57 -8.2 17.2
02:45 1020 30.12 849 25.07 -0.6 30.9 57 -8 17.6
02:50 1020 30.12 849 25.07 -0.9 30.4 59 -7.9 17.8
02:55 1020 30.12 849 25.07 -1 30.1 59 -8 17.5
03:00 1020 30.12 849 25.07 -1.2 29.9 60 -7.9 17.8
03:05 1020 30.12 849 25.07 -1.4 29.5 61 -7.9 17.7
03:10 1020 30.12 849 25.07 -1.2 29.9 58 -8.3 17
03:15 1020 30.12 849 25.07 -1 30.2 58 -8.2 17.2
03:20 1020 30.12 849 25.07 -1.1 30 58 -8.3 17.1
03:25 1020 30.12 849 25.07 -1 30.3 57 -8.5 16.7
03:30 1020 30.12 849 25.07 -1 30.3 56 -8.6 16.6
03:35 1020 30.12 849 25.07 -0.9 30.3 56 -8.7 16.3
03:40 1020 30.12 849 25.07 -1 30.2 58 -8.3 17.1
03:45 1019 30.09 849 25.07 -1.2 29.8 57 -8.6 16.6
03:50 1019 30.09 849 25.07 -1.1 30.1 58 -8.2 17.2
03:55 1019 30.09 849 25.07 -1.2 29.8 59 -8.3 17
04:00 1019 30.09 849 25.07 -1 30.2 58 -8.3 17
04:05 1019 30.09 849 25.07 -0.7 30.7 53 -9.1 15.6
04:10 1019 30.09 849 25.07 -0.2 31.6 52 -9 15.8
04:15 1019 30.09 849 25.07 -0.2 31.6 53 -8.6 16.5
04:20 1019 30.09 849 25.07 -0.1 31.8 52 -8.8 16.2
04:25 1020 30.12 849 25.07 0.2 32.4 51 -8.8 16.1
04:30 1020 30.12 849 25.07 0.4 32.7 51 -8.7 16.3
04:35 1020 30.12 849 25.07 0.3 32.6 51 -8.7 16.3
04:40 1020 30.12 849 25.07 0.4 32.7 51 -8.5 16.6
04:45 1020 30.12 849 25.07 0.2 32.4 55 -7.8 17.9
04:50 1020 30.12 849 25.07 -0.3 31.5 57 -7.7 18.1
04:55 1019 30.09 849 25.07 -0.8 30.6 60 -7.6 18.3
05:00 1019 30.09 849 25.07 -1.1 30 60 -8 17.7
05:05 1019 30.09 849 25.07 -0.5 31.2 53 -8.9 16
05:10 1019 30.09 849 25.07 0.2 32.4 52 -8.5 16.7
05:15 1019 30.09 849 25.07 0.2 32.4 53 -8.3 17.1
05:20 1019 30.09 849 25.07 -0.3 31.4 55 -8.4 16.9
05:25 1019 30.09 849 25.07 -0.3 31.5 55 -8.4 16.9
05:30 1019 30.09 849 25.07 -0.4 31.2 57 -7.9 17.7
05:35 1019 30.09 849 25.07 -1.1 30.1 59 -8 17.5
05:40 1019 30.09 849 25.07 -1.3 29.7 58 -8.4 16.8
05:45 1019 30.09 849 25.07 -1.1 30 58 -8.4 16.9
05:50 1019 30.09 849 25.07 -1 30.1 58 -8.4 16.9
05:55 1019 30.09 849 25.07 -0.8 30.5 57 -8.4 16.9
06:00 1019 30.09 849 25.07 -0.9 30.5 57 -8.3 17
06:05 1019 30.09 849 25.07 -0.9 30.4 58 -8.1 17.4
06:10 1019 30.09 849 25.07 -1 30.2 58 -8.2 17.2
06:15 1019 30.09 849 25.07 -0.8 30.6 57 -8.4 17
06:20 1019 30.09 848 25.04 -0.8 30.6 57 -8.3 17.1
06:25 1019 30.09 848 25.04 -0.9 30.4 56 -8.5 16.7
06:30 1019 30.09 848 25.04 -0.9 30.5 54 -9 15.8
06:35 1019 30.09 848 25.04 -0.1 31.9 52 -8.9 16.1
06:40 1019 30.09 848 25.04 0.3 32.6 50 -8.9 16
06:45 1019 30.09 848 25.04 0.2 32.3 53 -8.4 16.9
06:50 1019 30.09 848 25.04 -0.3 31.4 54 -8.5 16.7
06:55 1019 30.09 848 25.04 -0.3 31.5 54 -8.5 16.7
07:00 1019 30.09 848 25.04 -0.1 31.7 54 -8.4 16.9
07:05 1019 30.09 848 25.04 -0.1 31.8 53 -8.4 16.8
07:10 1019 30.09 848 25.04 -0 32 53 -8.6 16.6
07:15 1019 30.09 848 25.04 0.1 32.1 53 -8.5 16.7
07:20 1019 30.09 848 25.04 0.1 32.2 53 -8.4 16.8
07:25 1019 30.09 848 25.04 -0.1 31.7 55 -8.2 17.2
07:30 1019 30.09 848 25.04 -0.5 31.1 55 -8.4 16.8
07:35 1019 30.09 848 25.04 -0.5 31 56 -8.2 17.3
07:40 1019 30.09 848 25.04 -0.6 30.9 57 -8.1 17.4
07:45 1019 30.09 848 25.04 -0.6 30.9 57 -8.2 17.3
07:50 1019 30.09 848 25.04 -0.5 31.1 57 -8 17.5
07:55 1019 30.09 848 25.04 -0.5 31.2 56 -8.1 17.4
08:00 1019 30.09 848 25.04 -0.5 31.1 57 -8 17.6
08:05 1019 30.09 848 25.04 -0.6 31 57 -8 17.5
08:10 1019 30.09 848 25.04 -0.8 30.6 59 -7.9 17.8
08:15 1019 30.09 848 25.04 -0.9 30.5 59 -8 17.6
08:20 1019 30.09 848 25.04 -0.6 31 57 -8.1 17.4
08:25 1019 30.09 848 25.04 -0.1 31.7 54 -8.5 16.7
08:30 1019 30.09 848 25.04 0.2 32.3 53 -8.2 17.2
08:35 1019 30.09 848 25.04 0.2 32.4 54 -8 17.6
08:40 1019 30.09 848 25.04 -0 32 55 -8.1 17.5
08:45 1019 30.09 848 25.04 -0.3 31.5 55 -8.2 17.2
08:50 1019 30.09 848 25.04 -0.3 31.5 56 -7.9 17.8
08:55 1019 30.09 848 25.04 -0.5 31.2 57 -7.9 17.7
09:00 1019 30.09 848 25.04 -0.5 31.1 56 -8.2 17.2
09:05 1019 30.09 848 25.04 -0.2 31.7 54 -8.3 17.1
09:10 1019 30.09 848 25.04 -0.3 31.5 57 -7.9 17.8
09:15 1019 30.09 848 25.04 -0.7 30.7 56 -8.4 16.9
09:20 1019 30.09 848 25.04 -0.3 31.5 53 -8.8 16.2
09:25 1019 30.09 848 25.04 0.5 32.8 51 -8.5 16.8
09:30 1019 30.09 848 25.04 0.7 33.3 50 -8.6 16.6
09:35 1019 30.09 848 25.04 1.1 33.9 49 -8.5 16.7
09:40 1019 30.09 848 25.04 0.9 33.7 50 -8.4 16.9
09:45 1019 30.09 848 25.04 0.9 33.6 48 -8.8 16.2
09:50 1019 30.09 848 25.04 1.1 34 48 -8.6 16.5
09:55 1019 30.09 848 25.04 1.1 34.1 49 -8.3 17
10:00 1019 30.09 848 25.04 0.9 33.7 52 -7.9 17.7
10:05 1019 30.09 848 25.04 0.8 33.4 52 -7.9 17.7
10:10 1019 30.09 848 25.04 0.8 33.5 51 -8.1 17.4
10:15 1019 30.09 848 25.04 1.1 34 49 -8.5 16.8
10:20 1019 30.09 848 25.04 1.4 34.6 47 -8.7 16.3
10:25 1019 30.09 848 25.04 1.6 35 48 -8.1 17.4
10:30 1019 30.09 849 25.07 1.8 35.2 47 -8.3 17
10:35 1019 30.09 849 25.07 1.9 35.4 48 -8.1 17.4
10:40 1019 30.09 849 25.07 2.2 35.9 48 -7.8 17.9
10:45 1019 30.09 849 25.07 2.5 36.6 46 -7.8 17.9
10:50 1019 30.09 849 25.07 3 37.4 45 -7.8 17.9
10:55 1019 30.09 849 25.07 3.8 38.9 42 -8 17.7
11:00 1019 30.09 849 25.07 3.9 39 42 -7.8 18
11:05 1019 30.09 849 25.07 3.7 38.7 42 -7.9 17.7
11:10 1020 30.12 849 25.07 4.3 39.7 41 -7.8 17.9
11:15 1019 30.09 849 25.07 4.7 40.4 40 -7.9 17.7
11:20 1019 30.09 849 25.07 5.1 41.2 38 -8.1 17.3
11:25 1019 30.09 849 25.07 5.2 41.4 37 -8.3 17.1
11:30 1019 30.09 849 25.07 5.4 41.8 38 -7.9 17.9
11:35 1019 30.09 848 25.04 6 42.8 36 -7.9 17.8
11:40 1019 30.09 848 25.04 6.3 43.4 37 -7.4 18.7
11:45 1019 30.09 848 25.04 6.2 43.1 36 -7.7 18.1
11:50 1019 30.09 848 25.04 5.8 42.5 36 -8.1 17.3
11:55 1019 30.09 848 25.04 5.6 42.1 36 -8.5 16.8
12:00 1019 30.09 848 25.04 5.6 42.1 36 -8.4 16.9
12:05 1019 30.09 848 25.04 5.6 42 37 -8 17.7
12:10 1019 30.09 848 25.04 5.9 42.7 36 -8 17.7
12:15 1019 30.09 848 25.04 6.5 43.7 35 -7.9 17.8
12:20 1019 30.09 848 25.04 7.3 45.1 32 -8.3 17.1
12:25 1019 30.09 848 25.04 8 46.3 32 -7.7 18.2
12:30 1019 30.09 848 25.04 7.9 46.3 32 -7.7 18.2
12:35 1019 30.09 848 25.04 7.2 44.9 34 -7.8 18
12:40 1019 30.09 848 25.04 7.2 44.9 33 -8 17.5
12:45 1019 30.09 848 25.04 7.5 45.4 33 -7.8 17.9
12:50 1019 30.09 848 25.04 7.5 45.5 34 -7.2 19.1
12:55 1018 30.06 848 25.04 6.8 44.2 39 -6.2 20.8
13:00 1018 30.06 847 25.01 7.1 44.7 38 -6.4 20.4
13:05 1018 30.06 847 25.01 7.6 45.7 37 -6 21.1
13:10 1018 30.06 847 25.01 7.6 45.7 37 -6.3 20.6
13:15 1018 30.06 847 25.01 8 46.4 34 -6.8 19.7
13:20 1018 30.06 847 25.01 8.5 47.4 32 -7.1 19.2
13:25 1018 30.06 847 25.01 8.6 47.5 34 -6.3 20.7
13:30 1018 30.06 847 25.01 8.7 47.7 32 -7.2 19
13:35 1018 30.06 847 25.01 8.8 47.8 31 -7.4 18.7
13:40 1017 30.03 847 25.01 8.2 46.7 33 -7.1 19.2
13:45 1017 30.03 846 24.98 8 46.4 35 -6.7 20
13:50 1017 30.03 846 24.98 8.2 46.8 35 -6.3 20.6
13:55 1017 30.03 846 24.98 8 46.3 36 -6.1 21
14:00 1017 30.03 846 24.98 8 46.5 35 -6.3 20.6
14:05 1017 30.03 846 24.98 8.3 47 36 -5.8 21.6
14:10 1017 30.03 846 24.98 8.6 47.5 32 -7.2 19
14:15 1017 30.03 846 24.98 8.8 47.9 33 -6.7 19.9
14:20 1017 30.03 846 24.98 9.2 48.5 33 -6.1 21.1
14:25 1017 30.03 846 24.98 9.6 49.3 31 -6.6 20.1
14:30 1016 30 846 24.98 9.8 49.6 33 -5.6 21.9
14:35 1016 30 846 24.98 9.7 49.5 32 -6.2 20.9
14:40 1016 30 845 24.95 9.5 49.1 33 -6.1 21
14:45 1016 30 845 24.95 9.5 49 34 -5.7 21.7
14:50 1016 30 845 24.95 9.6 49.2 34 -5.7 21.8
14:55 1016 30 845 24.95 9.6 49.2 34 -5.6 21.9
15:00 1016 30 845 24.95 9.6 49.2 37 -4.5 23.9
15:05 1016 30 845 24.95 9.2 48.6 37 -4.8 23.4
15:10 1016 30 845 24.95 9.1 48.3 40 -3.7 25.4
15:15 1016 30 845 24.95 8.8 47.8 39 -4.2 24.4
15:20 1016 30 845 24.95 9 48.2 39 -4.1 24.5
15:25 1016 30 845 24.95 8.5 47.4 41 -4 24.8
15:30 1016 30 845 24.95 8 46.3 41 -4.6 23.7
15:35 1016 30 845 24.95 8 46.3 42 -4.3 24.3
15:40 1015 29.97 845 24.95 7.8 46 42 -4.4 24.1
15:45 1015 29.97 844 24.92 7.7 45.9 43 -3.9 24.9
15:50 1015 29.97 844 24.92 7.9 46.1 43 -4 24.9
15:55 1015 29.97 844 24.92 7.6 45.7 45 -3.5 25.8
16:00 1015 29.97 844 24.92 7.7 45.8 45 -3.5 25.8
16:05 1015 29.97 844 24.92 7.4 45.3 46 -3.4 25.8
16:10 1015 29.97 844 24.92 7.2 45 46 -3.6 25.6
16:15 1015 29.97 844 24.92 7 44.7 46 -3.8 25.2
16:20 1015 29.97 844 24.92 7 44.6 47 -3.7 25.4
16:25 1015 29.97 844 24.92 7 44.7 47 -3.6 25.5
16:30 1015 29.97 844 24.92 7 44.6 47 -3.7 25.4
16:35 1015 29.97 844 24.92 7 44.6 45 -4 24.8
16:40 1015 29.97 844 24.92 7.2 44.9 44 -4.2 24.5
16:45 1015 29.97 844 24.92 6.9 44.5 46 -3.9 24.9
16:50 1015 29.97 844 24.92 6.5 43.8 47 -3.9 25
16:55 1015 29.97 844 24.92 6.5 43.7 48 -3.8 25.1
17:00 1015 29.97 844 24.92 6.3 43.3 47 -4.1 24.6
17:05 1015 29.97 844 24.92 6.1 43 44 -5.2 22.6
17:10 1014 29.94 844 24.92 6.1 43 43 -5.4 22.3
17:15 1014 29.94 844 24.92 6.2 43.1 44 -5.2 22.6
17:20 1014 29.94 844 24.92 6 42.8 44 -5.5 22.2
17:25 1014 29.94 844 24.92 5.9 42.7 43 -5.7 21.8
17:30 1014 29.94 844 24.92 6 42.7 46 -4.8 23.4
17:35 1015 29.97 844 24.92 5.8 42.4 48 -4.5 23.9
17:40 1014 29.94 844 24.92 5.5 42 47 -4.8 23.4
17:45 1014 29.94 844 24.92 5.4 41.8 51 -3.9 24.9
17:50 1015 29.97 844 24.92 5.3 41.5 52 -3.7 25.3
17:55 1015 29.97 844 24.92 4.8 40.7 51 -4.4 24.1
18:00 1015 29.97 844 24.92 4.8 40.6 48 -5.3 22.5
18:05 1015 29.97 844 24.92 5 41 47 -5.4 22.4
18:10 1014 29.94 844 24.92 4.7 40.5 46 -5.8 21.5
18:15 1014 29.94 844 24.92 4.9 40.8 45 -6 21.3
18:20 1014 29.94 844 24.92 5 41 43 -6.7 20
18:25 1014 29.94 844 24.92 5.1 41.2 42 -6.6 20.1
18:30 1014 29.94 844 24.92 5.2 41.4 38 -7.8 17.9
18:35 1014 29.94 844 24.92 5.6 42.1 36 -8.2 17.2
18:40 1014 29.94 844 24.92 6 42.8 36 -7.8 18
18:45 1014 29.94 844 24.92 5.7 42.3 38 -7.5 18.5
18:50 1014 29.94 844 24.92 5.4 41.7 39 -7.6 18.4
18:55 1014 29.94 844 24.92 5.3 41.6 39 -7.6 18.3
19:00 1014 29.94 844 24.92 5.3 41.6 40 -7.1 19.2
19:05 1014 29.94 844 24.92 4.9 40.8 43 -6.7 20
19:10 1014 29.94 844 24.92 4.6 40.3 44 -6.5 20.3
19:15 1014 29.94 844 24.92 4.5 40.1 44 -6.7 19.9
19:20 1014 29.94 844 24.92 4.8 40.6 42 -6.9 19.5
19:25 1014 29.94 844 24.92 4.9 40.8 42 -6.8 19.7
19:30 1014 29.94 844 24.92 4.8 40.6 43 -6.6 20.1
19:35 1014 29.94 844 24.92 4.7 40.5 44 -6.4 20.5
19:40 1014 29.94 844 24.92 4.6 40.3 44 -6.6 20.1
19:45 1014 29.94 844 24.92 4.6 40.3 44 -6.7 19.9
19:50 1014 29.94 844 24.92 4.7 40.4 44 -6.7 20
19:55 1014 29.94 843 24.89 4.9 40.8 42 -7.1 19.2
20:00 1014 29.94 843 24.89 4.9 40.8 42 -6.9 19.5
20:05 1014 29.94 843 24.89 4.9 40.8 41 -7.2 19
20:10 1014 29.94 843 24.89 4.8 40.7 42 -7 19.4
20:15 1014 29.94 843 24.89 4.7 40.5 42 -7.1 19.3
20:20 1014 29.94 843 24.89 4.7 40.5 42 -7.1 19.2
20:25 1014 29.94 843 24.89 4.8 40.6 41 -7.4 18.6
20:30 1014 29.94 843 24.89 4.9 40.9 40 -7.5 18.5
20:35 1014 29.94 843 24.89 5.1 41.2 40 -7.4 18.7
20:40 1014 29.94 843 24.89 5.3 41.5 39 -7.5 18.4
20:45 1014 29.94 843 24.89 5.4 41.7 38 -8 17.7
20:50 1014 29.94 843 24.89 5.6 42 38 -7.7 18.1
20:55 1014 29.94 843 24.89 5.8 42.4 38 -7.6 18.4
21:00 1014 29.94 843 24.89 5.7 42.2 37 -8 17.7
21:05 1014 29.94 843 24.89 5.7 42.2 38 -7.5 18.6
21:10 1014 29.94 843 24.89 5.4 41.7 40 -7.3 18.9
21:15 1014 29.94 843 24.89 5.2 41.4 39 -7.7 18.1
21:20 1013 29.91 843 24.89 5.4 41.8 38 -7.8 18
21:25 1013 29.91 843 24.89 5.7 42.2 37 -7.7 18.1
21:30 1013 29.91 843 24.89 5.5 42 38 -7.7 18.1
21:35 1013 29.91 843 24.89 5.3 41.5 40 -7.4 18.6
21:40 1013 29.91 843 24.89 5.1 41.2 39 -7.6 18.3
21:45 1013 29.91 843 24.89 5.2 41.4 38 -8 17.5
21:50 1013 29.91 842 24.86 5.3 41.5 40 -7.3 18.8
21:55 1013 29.91 842 24.86 4.8 40.7 41 -7.3 18.8
22:00 1013 29.91 842 24.86 4.8 40.6 40 -7.6 18.4
22:05 1013 29.91 842 24.86 4.9 40.9 40 -7.5 18.5
22:10 1013 29.91 842 24.86 5 40.9 40 -7.6 18.3
22:15 1013 29.91 842 24.86 5.2 41.4 39 -7.8 18
22:20 1013 29.91 842 24.86 5.3 41.5 39 -7.6 18.4
22:25 1013 29.91 842 24.86 5.2 41.4 38 -8 17.6
22:30 1013 29.91 842 24.86 5.5 42 38 -7.8 18
22:35 1013 29.91 842 24.86 5.5 41.9 37 -8.1 17.5
22:40 1013 29.91 842 24.86 5.5 41.9 38 -7.6 18.3
22:45 1013 29.91 842 24.86 5.4 41.7 36 -8.5 16.8
22:50 1013 29.91 842 24.86 5.7 42.3 37 -7.8 18
22:55 1013 29.91 842 24.86 5.4 41.8 38 -7.9 17.8
23:00 1013 29.91 842 24.86 5.3 41.5 39 -7.7 18.1
23:05 1013 29.91 842 24.86 5.1 41.3 40 -7.2 19
23:10 1013 29.91 842 24.86 5 40.9 40 -7.6 18.4
23:15 1013 29.91 842 24.86 5.1 41.2 39 -7.8 18
23:20 1013 29.91 842 24.86 5.2 41.3 39 -7.8 18
23:25 1013 29.91 842 24.86 5.4 41.7 38 -7.9 17.8
23:30 1013 29.91 842 24.86 5.7 42.3 37 -7.8 18
23:35 1013 29.91 843 24.89 5.7 42.3 37 -7.8 17.9
23:40 1013 29.91 843 24.89 5.5 41.8 39 -7.3 18.8
23:45 1013 29.91 842 24.86 4.9 40.7 41 -7.2 19
23:50 1013 29.91 843 24.89 4.8 40.6 41 -7.3 18.8
23:55 1013 29.91 843 24.89 4.7 40.5 41 -7.3 18.8
24:00 1013 29.91 843 24.89 5 41 40 -7.5 18.5